Compagnie Fsx-France! Un nouveau look pour votre VA, par: Julien & Co




 METAR ET TAF INFORMATION
METAR FOR LFKB
ADDS - METARS form results

(1211 UTC 26 May 2020)
Data provider http://aviationweather.gov/metar/data/
 
METAR text: LFKB 261200Z AUTO 02006KT 330V060 CAVOK 24/15 Q1024 NOSIG
Conditions at: LFKB (BASTIA/PORETTA , FR) observed 1200 UTC 26 May 2020
Temperature: 24.0°C (75°F)
Dewpoint: 15.0°C (59°F) [RH = 57%]
Pressure (altimeter): 30.24 inches Hg (1024.0 mb)
Winds: from the NNE (20 degrees) at 7 MPH (6 knots; 3.1 m/s)
Visibility: 6 or more miles (10+ km)
Ceiling: ceiling and visibility are OK
Clouds: unknown
Weather: no significant weather observed at this time

METAR text: LFKB 261130Z AUTO 01006KT 320V070 CAVOK 24/16 Q1024 NOSIG
Conditions at: LFKB (BASTIA/PORETTA , FR) observed 1130 UTC 26 May 2020
Temperature: 24.0°C (75°F)
Dewpoint: 16.0°C (61°F) [RH = 61%]
Pressure (altimeter): 30.24 inches Hg (1024.0 mb)
Winds: from the N (10 degrees) at 7 MPH (6 knots; 3.1 m/s)
Visibility: 6 or more miles (10+ km)
Ceiling: ceiling and visibility are OK
Clouds: unknown
Weather: no significant weather observed at this time

Forecast for: LFKB (BASTIA/PORETTA , FR)
Text: TAF LFKB 260800Z 2609/2709 VRB04KT CAVOK TX26/2611Z TN15/2703Z
Forecast period: 0900 UTC 26 May 2020 to 0900 UTC 27 May 2020
Forecast type: FROM: standard forecast or significant change
Winds: variable direction winds at 5 MPH (4 knots; 2.1 m/s)
Visibility: 6 or more miles 10+ km)
Ceiling: unknown
Clouds: missing
Weather: no significant weather forecast for this period
Text: TEMPO 2610/2615 06010KT
Forecast period: 1000 to 1500 UTC 26 May 2020
Forecast type: TEMPORARY: The following changes expected for less than half the time period
Winds: from the ENE (60 degrees) at 12 MPH (10 knots; 5.1 m/s)
Visibility: missing
Ceiling: unknown
Clouds: missing
Weather: no significant weather forecast for this period

 AÉROPORT DE AÉROPORT

 INFORMATIONS DE PISTE
Piste 16 Longueur de la piste 2519 m = 8266 ft Largeur de la piste 45 m = 148 ft
Élévation de la piste 13 ft Seuil de la piste déplacés 0 ft Runway heading 163
Piste 34 Longueur de la piste 2519 m = 8266 ft Largeur de la piste 45 m = 148 ft
Élévation de la piste 26 ft Seuil de la piste déplacés 0 ft Runway heading 343

 AÉROPORT FRÉQUENCES
Type AFIS Nom BASTIA INF Féquence 124.725 MHZ
Type APP Nom BASTIA RAD Féquence 123.825 MHZ
Type ARR Nom BASTIA APP Féquence 37.85 MHZ
Type ATIS Nom BASTIA ATI Féquence 125.925 MHZ
Type GND Nom GND Féquence 121.825 MHZ
Type TWR Nom BASTIA TWR Féquence 118 MHZ

 AIDES A LA NAVIGATION
Type VOR-DME Nom Bastia Féquence 114150 KHZ